createdAt,value
2023-04-02T00:00:28.287Z,82.89
2023-04-02T00:01:40.610Z,82.88
2023-04-02T00:03:00.623Z,82.78
2023-04-02T00:04:09.265Z,82.45
2023-04-02T00:05:19.812Z,82.98
2023-04-02T00:06:34.600Z,83.12
2023-04-02T00:07:50.986Z,82.87
2023-04-02T00:09:06.110Z,82.95
2023-04-02T00:10:26.578Z,82.39
2023-04-02T00:11:37.677Z,82.87
2023-04-02T00:12:40.843Z,83.13
2023-04-02T00:13:47.267Z,82.96
2023-04-02T00:14:54.014Z,82.89
2023-04-02T00:15:58.918Z,82.90
2023-04-02T00:17:05.573Z,82.98
2023-04-02T00:18:14.649Z,82.60
2023-04-02T00:19:24.955Z,82.74
2023-04-02T00:20:30.902Z,82.72
2023-04-02T00:21:39.933Z,82.77
2023-04-02T00:22:45.113Z,82.94
2023-04-02T00:23:48.092Z,82.58
2023-04-02T00:24:53.735Z,82.58
2023-04-02T00:25:56.708Z,82.83
2023-04-02T00:27:00.997Z,83.15
2023-04-02T00:28:04.611Z,83.03
2023-04-02T00:29:11.523Z,83.17
2023-04-02T00:30:15.906Z,83.26
2023-04-02T00:31:20.397Z,83.35
2023-04-02T00:32:28.067Z,83.10
2023-04-02T00:33:32.361Z,82.99
2023-04-02T00:34:38.326Z,82.51
2023-04-02T00:35:42.008Z,81.91
2023-04-02T00:36:46.891Z,81.91
2023-04-02T00:37:50.758Z,82.54
2023-04-02T00:38:55.285Z,82.85
2023-04-02T00:40:06.472Z,82.66
2023-04-02T00:41:16.683Z,82.71
2023-04-02T00:42:21.048Z,82.74
2023-04-02T00:43:28.180Z,83.07
2023-04-02T00:44:34.659Z,83.18
2023-04-02T00:45:39.138Z,83.46
2023-04-02T00:46:47.520Z,83.73
2023-04-02T00:47:51.204Z,83.96
2023-04-02T00:49:03.404Z,83.86
2023-04-02T00:50:12.441Z,83.72
2023-04-02T00:51:24.880Z,84.08
2023-04-02T00:52:31.722Z,84.35
2023-04-02T00:53:36.184Z,84.62
2023-04-02T00:55:10.717Z,84.96
2023-04-02T00:56:25.843Z,85.48
2023-04-02T00:57:29.095Z,85.61
2023-04-02T00:58:37.757Z,85.73
2023-04-02T00:59:55.448Z,85.95
2023-04-02T01:01:00.352Z,85.97
2023-04-02T01:02:17.584Z,86.02
2023-04-02T01:03:23.135Z,86.01
2023-04-02T01:04:34.694Z,86.05
2023-04-02T01:05:37.995Z,86.14
2023-04-02T01:06:44.338Z,86.52
2023-04-02T01:08:07.636Z,86.44
2023-04-02T01:09:35.600Z,86.42
2023-04-02T01:10:41.751Z,86.45
2023-04-02T01:11:53.581Z,86.60
2023-04-02T01:13:15.183Z,86.87
2023-04-02T01:14:37.102Z,87.21
2023-04-02T01:15:47.256Z,87.30
2023-04-02T01:16:55.315Z,87.08
2023-04-02T01:18:26.953Z,86.93
2023-04-02T01:19:45.380Z,87.02
2023-04-02T01:20:48.385Z,86.91
2023-04-02T01:22:10.226Z,87.39
2023-04-02T01:23:35.940Z,87.67
2023-04-02T01:24:39.065Z,87.89
2023-04-02T01:25:58.961Z,88.01
2023-04-02T01:27:05.743Z,87.90
2023-04-02T01:28:29.941Z,87.61
2023-04-02T01:29:45.668Z,87.62
2023-04-02T01:30:53.502Z,87.31
2023-04-02T01:32:01.881Z,87.30
2023-04-02T01:33:06.535Z,87.30
2023-04-02T01:34:14.656Z,87.13
2023-04-02T01:35:17.858Z,87.37
2023-04-02T01:36:54.788Z,87.44
2023-04-02T01:38:19.586Z,87.39
2023-04-02T01:40:06.215Z,87.48
2023-04-02T01:41:28.268Z,86.94
2023-04-02T01:42:37.170Z,86.73
2023-04-02T01:43:48.453Z,87.04
2023-04-02T01:44:54.543Z,87.19
2023-04-02T01:45:59.113Z,87.26
2023-04-02T01:47:06.032Z,87.23
2023-04-02T01:48:17.018Z,87.32
2023-04-02T01:49:22.946Z,87.41
2023-04-02T01:50:37.493Z,87.49
2023-04-02T01:51:45.077Z,87.53
2023-04-02T01:52:51.454Z,87.46
2023-04-02T01:53:55.120Z,87.27
2023-04-02T01:54:58.330Z,87.29
2023-04-02T01:56:03.057Z,87.33
2023-04-02T01:57:07.772Z,87.50
2023-04-02T01:58:14.145Z,87.60
2023-04-02T01:59:22.591Z,87.63
2023-04-02T02:00:28.094Z,87.36
2023-04-02T02:01:42.797Z,87.23
2023-04-02T02:02:50.334Z,86.85
2023-04-02T02:03:54.157Z,87.04
2023-04-02T02:04:57.099Z,87.18
2023-04-02T02:06:01.799Z,87.19
2023-04-02T02:07:05.594Z,87.08
2023-04-02T02:08:22.654Z,87.19
2023-04-02T02:09:29.552Z,87.23
2023-04-02T02:10:39.354Z,86.87
2023-04-02T02:11:42.693Z,86.06
2023-04-02T02:12:48.287Z,85.91
2023-04-02T02:13:56.773Z,86.27
2023-04-02T02:14:59.678Z,86.63
2023-04-02T02:16:04.910Z,86.42
2023-04-02T02:17:13.706Z,85.54
2023-04-02T02:18:23.905Z,85.27
2023-04-02T02:19:36.008Z,85.43
2023-04-02T02:20:38.933Z,86.00
2023-04-02T02:21:52.664Z,85.53
2023-04-02T02:22:57.643Z,85.71
2023-04-02T02:24:02.658Z,85.66
2023-04-02T02:25:17.538Z,85.40
2023-04-02T02:26:23.372Z,85.46
2023-04-02T02:27:26.497Z,85.79
2023-04-02T02:28:37.980Z,85.99
2023-04-02T02:29:43.261Z,86.02
2023-04-02T02:30:57.839Z,85.84
2023-04-02T02:32:03.193Z,86.20
2023-04-02T02:33:48.060Z,86.03
2023-04-02T02:35:00.859Z,85.92
2023-04-02T02:36:06.643Z,86.26
2023-04-02T02:37:18.381Z,86.38
2023-04-02T02:38:54.675Z,86.34
2023-04-02T02:40:01.200Z,86.06
2023-04-02T02:41:28.002Z,85.89
2023-04-02T02:42:39.754Z,85.91
2023-04-02T02:43:50.935Z,86.37
2023-04-02T02:44:55.745Z,85.99
2023-04-02T02:45:59.735Z,86.32
2023-04-02T02:47:14.660Z,86.33
2023-04-02T02:48:22.662Z,86.40
2023-04-02T02:49:33.233Z,86.44
2023-04-02T02:50:37.276Z,86.56
2023-04-02T02:51:49.405Z,86.62
2023-04-02T02:52:57.753Z,86.63
2023-04-02T02:54:03.968Z,86.77
2023-04-02T02:55:37.915Z,86.54
2023-04-02T02:56:54.401Z,86.73
2023-04-02T02:58:04.928Z,87.00
2023-04-02T02:59:11.546Z,87.02
2023-04-02T03:00:19.471Z,86.98
2023-04-02T03:01:22.906Z,86.82
2023-04-02T03:02:28.837Z,87.02
2023-04-02T03:03:34.589Z,87.21
2023-04-02T03:04:38.938Z,86.99
2023-04-02T03:05:42.206Z,87.33
2023-04-02T03:06:52.948Z,87.18
2023-04-02T03:07:58.769Z,87.44
2023-04-02T03:09:05.345Z,87.49
2023-04-02T03:10:27.728Z,87.77
2023-04-02T03:12:02.357Z,87.76
2023-04-02T03:13:25.086Z,87.91
2023-04-02T03:14:37.404Z,87.98
2023-04-02T03:15:58.718Z,87.85
2023-04-02T03:17:11.198Z,87.96
2023-04-02T03:18:26.419Z,88.07
2023-04-02T03:19:38.912Z,88.06
2023-04-02T03:20:51.912Z,87.99
2023-04-02T03:22:03.780Z,87.88
2023-04-02T03:23:29.902Z,87.78
2023-04-02T03:24:44.437Z,87.37
2023-04-02T03:26:19.903Z,87.16
2023-04-02T03:27:35.541Z,87.00
2023-04-02T03:28:51.192Z,87.20
2023-04-02T03:30:26.945Z,87.24
2023-04-02T03:31:55.397Z,87.46
2023-04-02T03:33:04.144Z,87.67
2023-04-02T03:34:33.229Z,87.58
2023-04-02T03:36:08.526Z,87.68
2023-04-02T03:37:14.966Z,87.75
2023-04-02T03:38:27.451Z,87.87
2023-04-02T03:40:00.134Z,88.03
2023-04-02T03:41:16.655Z,87.97
2023-04-02T03:42:29.191Z,87.87
2023-04-02T03:43:41.649Z,87.73
2023-04-02T03:44:52.865Z,87.44
2023-04-02T03:46:23.570Z,87.32
2023-04-02T03:47:45.449Z,87.42
2023-04-02T03:48:56.490Z,87.37
2023-04-02T03:50:15.761Z,87.41
2023-04-02T03:51:30.970Z,87.64
2023-04-02T03:52:37.081Z,87.93
2023-04-02T03:53:40.128Z,88.04
2023-04-02T03:54:53.791Z,87.98
2023-04-02T03:55:58.823Z,87.73
2023-04-02T03:57:02.248Z,87.87
2023-04-02T03:58:27.488Z,88.07
2023-04-02T03:59:49.035Z,88.41
2023-04-02T04:00:59.069Z,88.32
2023-04-02T04:02:04.777Z,88.20
2023-04-02T04:03:39.821Z,88.23
2023-04-02T04:04:44.973Z,88.21
2023-04-02T04:06:06.404Z,88.27
2023-04-02T04:07:36.505Z,88.32
2023-04-02T04:09:05.644Z,88.56
2023-04-02T04:10:17.314Z,88.74
2023-04-02T04:11:30.135Z,88.72
2023-04-02T04:12:40.476Z,88.95
2023-04-02T04:13:54.738Z,89.10
2023-04-02T04:15:17.238Z,89.10
2023-04-02T04:16:36.374Z,89.17
2023-04-02T04:17:54.238Z,89.05
2023-04-02T04:19:08.586Z,89.14
2023-04-02T04:20:24.627Z,88.59
2023-04-02T04:21:37.738Z,88.68
2023-04-02T04:22:41.154Z,88.56
2023-04-02T04:23:51.308Z,88.36
2023-04-02T04:24:54.430Z,88.65
2023-04-02T04:26:09.828Z,88.90
2023-04-02T04:27:34.857Z,89.02
2023-04-02T04:28:58.578Z,89.13
2023-04-02T04:30:07.488Z,88.78
2023-04-02T04:31:47.458Z,88.95
2023-04-02T04:32:58.838Z,89.31
2023-04-02T04:34:09.492Z,89.17
2023-04-02T04:35:40.418Z,89.24
2023-04-02T04:36:54.767Z,89.11
2023-04-02T04:38:05.045Z,89.28
2023-04-02T04:39:18.879Z,89.65
2023-04-02T04:40:34.350Z,89.31
2023-04-02T04:41:39.519Z,89.30
2023-04-02T04:42:45.544Z,89.59
2023-04-02T04:43:59.908Z,89.64
2023-04-02T04:45:30.941Z,89.96
2023-04-02T04:46:48.489Z,89.69
2023-04-02T04:48:19.551Z,90.05
2023-04-02T04:49:44.621Z,90.44
2023-04-02T04:50:54.073Z,90.57
2023-04-02T04:52:14.116Z,90.67
2023-04-02T04:53:22.080Z,90.53
2023-04-02T04:54:29.064Z,90.89
2023-04-02T04:55:43.413Z,91.45
2023-04-02T04:56:55.632Z,91.20
2023-04-02T04:58:08.662Z,90.99
2023-04-02T04:59:26.760Z,91.07
2023-04-02T05:00:51.438Z,91.09
2023-04-02T05:02:16.788Z,91.21
2023-04-02T05:04:07.521Z,91.18
2023-04-02T05:05:32.218Z,90.83
2023-04-02T05:06:43.062Z,90.93
2023-04-02T05:07:53.391Z,90.60
2023-04-02T05:09:03.492Z,90.54
2023-04-02T05:10:25.116Z,90.35
2023-04-02T05:11:37.721Z,90.40
2023-04-02T05:12:57.462Z,90.47
2023-04-02T05:14:18.291Z,89.96
2023-04-02T05:15:32.480Z,90.03
2023-04-02T05:17:01.853Z,90.11
2023-04-02T05:18:35.928Z,89.91
2023-04-02T05:19:48.970Z,89.81
2023-04-02T05:21:07.302Z,89.66
2023-04-02T05:22:19.895Z,89.63
2023-04-02T05:23:29.689Z,89.42
2023-04-02T05:24:51.619Z,89.08
2023-04-02T05:26:13.453Z,89.02
2023-04-02T05:27:21.755Z,88.87
2023-04-02T05:28:51.022Z,88.41
2023-04-02T05:30:07.521Z,88.33
2023-04-02T05:31:26.471Z,88.48
2023-04-02T05:32:35.574Z,88.52
2023-04-02T05:33:40.148Z,88.43
2023-04-02T05:34:48.664Z,88.28
2023-04-02T05:36:07.875Z,88.03
2023-04-02T05:37:21.785Z,87.60
2023-04-02T05:38:29.417Z,87.19
2023-04-02T05:39:33.097Z,87.16
2023-04-02T05:40:43.254Z,87.11
2023-04-02T05:41:47.830Z,86.76
2023-04-02T05:42:53.433Z,86.19
2023-04-02T05:44:42.010Z,85.83
2023-04-02T05:45:53.296Z,84.93
2023-04-02T05:47:01.791Z,84.30
2023-04-02T05:48:17.022Z,82.99
2023-04-02T05:49:34.856Z,83.16
2023-04-02T05:50:44.040Z,83.17
2023-04-02T05:51:51.131Z,83.34
2023-04-02T05:53:08.787Z,83.23
2023-04-02T05:54:26.403Z,82.43
2023-04-02T05:56:00.265Z,82.64
2023-04-02T05:57:11.773Z,83.57
2023-04-02T05:58:35.610Z,82.59
2023-04-02T05:59:49.551Z,82.65
2023-04-02T06:01:00.061Z,83.16
2023-04-02T06:02:18.155Z,83.42
2023-04-02T06:03:30.188Z,83.65
2023-04-02T06:05:04.544Z,83.04
2023-04-02T06:06:18.819Z,81.96
2023-04-02T06:07:28.658Z,81.90
2023-04-02T06:08:47.994Z,81.62
2023-04-02T06:10:09.712Z,81.54
2023-04-02T06:11:19.219Z,81.63
2023-04-02T06:13:03.901Z,81.76
2023-04-02T06:14:06.928Z,80.82
2023-04-02T06:15:15.792Z,80.47
2023-04-02T06:16:22.059Z,80.56
2023-04-02T06:17:25.754Z,80.34
2023-04-02T06:18:34.942Z,80.50
2023-04-02T06:19:39.842Z,80.04
2023-04-02T06:20:42.974Z,78.96
2023-04-02T06:21:50.066Z,78.81
2023-04-02T06:23:14.460Z,78.46
2023-04-02T06:24:23.345Z,78.93
2023-04-02T06:25:35.162Z,79.15
2023-04-02T06:27:03.049Z,78.87
2023-04-02T06:28:12.520Z,77.65
2023-04-02T06:29:40.107Z,78.08
2023-04-02T06:30:43.824Z,77.28
2023-04-02T06:32:00.685Z,76.92
2023-04-02T06:33:04.638Z,77.35
2023-04-02T06:34:17.042Z,77.35
2023-04-02T06:35:20.503Z,77.04
2023-04-02T06:36:26.085Z,77.40
2023-04-02T06:37:46.091Z,76.99
2023-04-02T06:38:50.418Z,75.92
2023-04-02T06:39:53.754Z,76.42
2023-04-02T06:41:12.149Z,76.82
2023-04-02T06:42:22.035Z,76.43
2023-04-02T06:43:41.384Z,76.46
2023-04-02T06:44:44.481Z,76.42
2023-04-02T06:45:52.360Z,75.89
2023-04-02T06:47:10.435Z,75.60
2023-04-02T06:48:19.684Z,75.56
2023-04-02T06:49:36.944Z,75.74
2023-04-02T06:50:57.226Z,75.59
2023-04-02T06:52:04.372Z,75.66
2023-04-02T06:53:12.223Z,75.98
2023-04-02T06:54:19.261Z,76.17
2023-04-02T06:55:28.153Z,75.92
2023-04-02T06:56:52.844Z,75.24
2023-04-02T06:57:56.401Z,75.14
2023-04-02T06:58:59.763Z,74.86
2023-04-02T07:00:04.099Z,75.73
2023-04-02T07:01:06.969Z,75.68
2023-04-02T07:02:33.325Z,76.46
2023-04-02T07:03:36.590Z,76.42
2023-04-02T07:04:39.495Z,75.81
2023-04-02T07:05:43.194Z,75.72
2023-04-02T07:06:46.916Z,76.34
2023-04-02T07:07:49.845Z,76.33
2023-04-02T07:08:53.071Z,76.06
2023-04-02T07:09:56.621Z,75.71
2023-04-02T07:10:59.615Z,75.48
2023-04-02T07:12:02.680Z,75.51
2023-04-02T07:13:06.168Z,75.74
2023-04-02T07:14:13.190Z,75.58
2023-04-02T07:15:19.718Z,75.69
2023-04-02T07:16:25.923Z,75.59
2023-04-02T07:17:29.076Z,76.06
2023-04-02T07:18:34.150Z,76.02
2023-04-02T07:19:37.364Z,75.63
2023-04-02T07:20:41.948Z,74.96
2023-04-02T07:21:44.849Z,75.11
2023-04-02T07:22:47.822Z,75.21
2023-04-02T07:23:51.076Z,75.25
2023-04-02T07:24:54.027Z,74.78
2023-04-02T07:25:57.985Z,74.81
2023-04-02T07:28:05.401Z,74.76
2023-04-02T07:29:14.194Z,75.03
2023-04-02T07:30:17.624Z,74.31
2023-04-02T07:31:24.662Z,74.37
2023-04-02T07:32:27.769Z,74.64
2023-04-02T07:33:31.691Z,73.79
2023-04-02T07:34:34.541Z,72.57
2023-04-02T07:35:37.777Z,72.13
2023-04-02T07:36:40.918Z,72.76
2023-04-02T07:37:44.006Z,73.07
2023-04-02T07:38:47.478Z,72.77
2023-04-02T07:39:50.417Z,72.67
2023-04-02T07:40:53.637Z,71.97
2023-04-02T07:41:58.759Z,72.40
2023-04-02T07:43:02.630Z,72.92
2023-04-02T07:44:05.506Z,72.56
2023-04-02T07:45:09.096Z,72.95
2023-04-02T07:46:15.268Z,73.41
2023-04-02T07:47:18.140Z,74.02
2023-04-02T07:48:20.924Z,73.70
2023-04-02T07:49:23.902Z,72.41
2023-04-02T07:50:26.729Z,71.75
2023-04-02T07:51:29.552Z,71.47
2023-04-02T07:52:33.038Z,70.75
2023-04-02T07:53:38.958Z,70.37
2023-04-02T07:54:41.876Z,70.90
2023-04-02T07:55:44.707Z,70.52
2023-04-02T07:56:47.965Z,70.72
2023-04-02T07:57:57.102Z,71.18
2023-04-02T07:59:00.213Z,70.69
2023-04-02T08:00:04.845Z,69.83
2023-04-02T08:01:16.940Z,69.61
2023-04-02T08:02:21.616Z,69.30
2023-04-02T08:03:25.239Z,69.36
2023-04-02T08:04:28.541Z,69.93
2023-04-02T08:05:31.479Z,69.98
2023-04-02T08:06:34.235Z,70.41
2023-04-02T08:07:39.337Z,70.69
2023-04-02T08:08:42.318Z,70.81
2023-04-02T08:09:45.490Z,70.55
2023-04-02T08:10:48.584Z,69.67
2023-04-02T08:11:51.715Z,69.92
2023-04-02T08:12:54.938Z,70.01
2023-04-02T08:13:57.810Z,70.33
2023-04-02T08:15:00.756Z,70.34
2023-04-02T08:16:04.969Z,69.28
2023-04-02T08:17:07.948Z,69.29
2023-04-02T08:18:11.763Z,70.01
2023-04-02T08:19:14.889Z,69.19
2023-04-02T08:20:20.604Z,67.71
2023-04-02T08:21:23.492Z,67.65
2023-04-02T08:22:27.874Z,67.39
2023-04-02T08:23:31.607Z,67.88
2023-04-02T08:24:34.621Z,68.32
2023-04-02T08:25:40.602Z,68.28
2023-04-02T08:26:45.420Z,68.32
2023-04-02T08:27:48.947Z,69.78
2023-04-02T08:28:51.897Z,69.59
2023-04-02T08:29:54.786Z,69.05
2023-04-02T08:30:57.973Z,69.14
2023-04-02T08:32:01.691Z,69.44
2023-04-02T08:33:04.821Z,68.59
2023-04-02T08:34:08.094Z,69.46
2023-04-02T08:35:17.214Z,69.39
2023-04-02T08:36:25.019Z,69.49
2023-04-02T08:37:28.336Z,68.26
2023-04-02T08:38:31.436Z,69.53
2023-04-02T08:39:35.462Z,68.06
2023-04-02T08:40:42.100Z,67.75
2023-04-02T08:41:51.539Z,67.42
2023-04-02T08:43:16.214Z,67.81
2023-04-02T08:44:38.226Z,68.39
2023-04-02T08:45:47.215Z,69.01
2023-04-02T08:47:14.024Z,69.13
2023-04-02T08:48:17.652Z,68.69
2023-04-02T08:49:28.504Z,68.84
2023-04-02T08:50:37.490Z,68.56
2023-04-02T08:51:41.236Z,68.04
2023-04-02T08:52:44.403Z,67.41
2023-04-02T08:53:47.887Z,67.15
2023-04-02T08:54:51.341Z,66.71
2023-04-02T08:56:00.204Z,66.54
2023-04-02T08:57:18.942Z,66.91
2023-04-02T08:59:03.605Z,66.80
2023-04-02T09:00:39.065Z,67.20
2023-04-02T09:02:00.874Z,66.67
2023-04-02T09:03:20.923Z,66.46
2023-04-02T09:04:26.379Z,66.99
2023-04-02T09:05:35.238Z,67.80
2023-04-02T09:06:38.542Z,67.11
2023-04-02T09:07:42.268Z,67.09
2023-04-02T09:08:47.929Z,67.11
2023-04-02T09:09:51.754Z,67.31
2023-04-02T09:11:04.005Z,66.77
2023-04-02T09:12:15.884Z,67.51
2023-04-02T09:13:23.592Z,66.46
2023-04-02T09:14:46.363Z,66.69
2023-04-02T09:15:54.043Z,65.81
2023-04-02T09:17:03.179Z,65.81
2023-04-02T09:18:19.119Z,66.38
2023-04-02T09:19:25.674Z,66.85
2023-04-02T09:20:29.567Z,68.30
2023-04-02T09:21:34.819Z,68.99
2023-04-02T09:22:41.678Z,68.84
2023-04-02T09:23:44.768Z,69.43
2023-04-02T09:24:59.277Z,68.95
2023-04-02T09:26:04.664Z,68.03
2023-04-02T09:27:33.194Z,68.93
2023-04-02T09:28:36.537Z,68.20
2023-04-02T09:29:45.555Z,67.05
2023-04-02T09:31:15.325Z,67.41
2023-04-02T09:32:18.095Z,66.50
2023-04-02T09:33:40.604Z,66.63
2023-04-02T09:34:43.530Z,66.77
2023-04-02T09:35:51.845Z,67.49
2023-04-02T09:36:55.032Z,66.04
2023-04-02T09:38:10.252Z,66.11
2023-04-02T09:39:23.952Z,66.42
2023-04-02T09:40:32.233Z,66.88
2023-04-02T09:41:37.210Z,65.95
2023-04-02T09:42:41.182Z,66.76
2023-04-02T09:43:44.301Z,66.62
2023-04-02T09:44:47.162Z,67.12
2023-04-02T09:46:04.374Z,66.94
2023-04-02T09:47:25.451Z,67.27
2023-04-02T09:48:32.675Z,67.03
2023-04-02T09:49:40.131Z,66.54
2023-04-02T09:50:43.124Z,67.20
2023-04-02T09:51:46.239Z,66.53
2023-04-02T09:52:51.588Z,67.86
2023-04-02T09:54:03.824Z,66.92
2023-04-02T09:55:16.210Z,68.19
2023-04-02T09:56:24.453Z,68.60
2023-04-02T09:57:28.434Z,68.35
2023-04-02T09:58:31.511Z,68.09
2023-04-02T09:59:34.558Z,67.70
2023-04-02T10:00:37.482Z,67.09
2023-04-02T10:01:44.382Z,67.61
2023-04-02T10:03:00.738Z,67.99
2023-04-02T10:04:05.711Z,67.83
2023-04-02T10:05:36.915Z,67.42
2023-04-02T10:06:50.711Z,67.10
2023-04-02T10:08:06.068Z,67.42
2023-04-02T10:09:45.886Z,67.79
2023-04-02T10:10:53.392Z,67.47
2023-04-02T10:11:58.725Z,68.25
2023-04-02T10:13:08.240Z,67.92
2023-04-02T10:14:36.385Z,68.44
2023-04-02T10:15:58.902Z,67.82
2023-04-02T10:17:19.156Z,67.80
2023-04-02T10:18:40.029Z,68.18
2023-04-02T10:19:47.887Z,68.13
2023-04-02T10:20:53.316Z,67.93
2023-04-02T10:21:58.622Z,68.39
2023-04-02T10:23:01.632Z,68.17
2023-04-02T10:24:15.762Z,67.90
2023-04-02T10:25:21.874Z,68.17
2023-04-02T10:26:47.001Z,68.40
2023-04-02T10:27:55.931Z,68.12
2023-04-02T10:29:07.388Z,67.81
2023-04-02T10:30:16.560Z,66.86
2023-04-02T10:31:48.814Z,67.04
2023-04-02T10:32:59.989Z,66.30
2023-04-02T10:34:11.665Z,66.59
2023-04-02T10:35:36.877Z,66.58
2023-04-02T10:36:51.172Z,65.42
2023-04-02T10:37:54.617Z,66.45
2023-04-02T10:39:27.595Z,66.62
2023-04-02T10:40:51.285Z,66.54
2023-04-02T10:42:04.323Z,66.30
2023-04-02T10:43:38.003Z,66.82
2023-04-02T10:45:00.119Z,67.04
2023-04-02T10:46:32.950Z,67.98
2023-04-02T10:47:48.761Z,66.60
2023-04-02T10:49:02.470Z,65.16
2023-04-02T10:50:42.562Z,65.40
2023-04-02T10:51:50.643Z,65.60
2023-04-02T10:53:04.886Z,67.37
2023-04-02T10:54:43.214Z,66.01
2023-04-02T10:55:55.335Z,64.13
2023-04-02T10:57:23.737Z,63.54
2023-04-02T10:58:32.009Z,63.19
2023-04-02T10:59:41.326Z,61.37
2023-04-02T11:00:47.218Z,62.03
2023-04-02T11:01:53.929Z,61.14
2023-04-02T11:03:07.593Z,62.00
2023-04-02T11:04:22.226Z,60.50
2023-04-02T11:05:47.029Z,60.02
2023-04-02T11:07:13.188Z,60.07
2023-04-02T11:08:40.812Z,59.73
2023-04-02T11:09:49.004Z,60.14
2023-04-02T11:10:57.959Z,60.22
2023-04-02T11:12:03.545Z,59.16
2023-04-02T11:13:14.667Z,58.95
2023-04-02T11:14:29.028Z,60.75
2023-04-02T11:15:32.639Z,59.42
2023-04-02T11:16:38.747Z,58.63
2023-04-02T11:17:45.801Z,58.09
2023-04-02T11:19:16.359Z,58.14
2023-04-02T11:20:50.094Z,56.30
2023-04-02T11:22:04.355Z,56.25
2023-04-02T11:23:14.201Z,56.62
2023-04-02T11:24:34.368Z,55.59
2023-04-02T11:25:37.625Z,56.14
2023-04-02T11:26:44.015Z,55.56
2023-04-02T11:27:47.129Z,56.06
2023-04-02T11:28:50.223Z,56.70
2023-04-02T11:29:58.097Z,55.15
2023-04-02T11:31:02.380Z,56.77
2023-04-02T11:32:15.975Z,56.16
2023-04-02T11:33:38.303Z,57.09
2023-04-02T11:35:03.082Z,56.76
2023-04-02T11:36:46.879Z,54.52
2023-04-02T11:37:50.077Z,53.74
2023-04-02T11:38:54.983Z,53.99
2023-04-02T11:40:25.403Z,53.87
2023-04-02T11:41:56.056Z,54.82
2023-04-02T11:43:34.480Z,55.26
2023-04-02T11:44:37.417Z,54.75
2023-04-02T11:45:52.587Z,53.45
2023-04-02T11:47:23.863Z,54.35
2023-04-02T11:48:30.166Z,55.41
2023-04-02T11:49:36.304Z,55.53
2023-04-02T11:50:46.644Z,55.18
2023-04-02T11:51:56.541Z,55.34
2023-04-02T11:53:11.763Z,53.73
2023-04-02T11:54:28.838Z,54.24
2023-04-02T11:55:36.263Z,53.01
2023-04-02T11:56:52.789Z,53.24
2023-04-02T11:58:02.141Z,53.03
2023-04-02T11:59:30.000Z,55.90
2023-04-02T12:00:33.411Z,56.59
2023-04-02T12:01:45.488Z,55.10
2023-04-02T12:03:13.701Z,55.97
2023-04-02T12:04:22.743Z,57.02
2023-04-02T12:05:54.929Z,54.77
2023-04-02T12:07:17.779Z,55.15
2023-04-02T12:08:57.664Z,54.94
2023-04-02T12:10:06.366Z,55.25
2023-04-02T12:11:09.520Z,56.53
2023-04-02T12:12:24.811Z,56.60
2023-04-02T12:13:39.863Z,53.72
2023-04-02T12:14:49.726Z,52.40
2023-04-02T12:15:53.096Z,53.02
2023-04-02T12:16:56.808Z,53.47
2023-04-02T12:18:15.126Z,53.84
2023-04-02T12:19:18.457Z,52.31
2023-04-02T12:20:31.989Z,52.17
2023-04-02T12:21:35.323Z,54.95
2023-04-02T12:22:52.295Z,53.38
2023-04-02T12:23:58.954Z,53.17
2023-04-02T12:25:06.846Z,52.06
2023-04-02T12:26:37.878Z,53.69
2023-04-02T12:27:44.308Z,52.18
2023-04-02T12:28:48.009Z,53.58
2023-04-02T12:29:52.754Z,52.07
2023-04-02T12:31:19.578Z,52.13
2023-04-02T12:32:27.819Z,52.69
2023-04-02T12:33:37.702Z,51.71
2023-04-02T12:34:46.782Z,51.96
2023-04-02T12:35:55.428Z,53.77
2023-04-02T12:37:04.443Z,53.13
2023-04-02T12:38:26.185Z,52.13
2023-04-02T12:39:31.126Z,52.17
2023-04-02T12:40:34.437Z,53.84
2023-04-02T12:41:38.061Z,53.86
2023-04-02T12:42:41.340Z,52.17
2023-04-02T12:43:44.694Z,51.79
2023-04-02T12:44:50.810Z,51.23
2023-04-02T12:46:01.465Z,51.47
2023-04-02T12:47:05.260Z,52.25
2023-04-02T12:48:12.327Z,52.99
2023-04-02T12:49:37.327Z,51.76
2023-04-02T12:50:42.109Z,51.02
2023-04-02T12:51:45.115Z,51.48
2023-04-02T12:52:51.582Z,51.90
2023-04-02T12:53:54.541Z,52.87
2023-04-02T12:55:03.714Z,51.24
2023-04-02T12:56:09.062Z,52.39
2023-04-02T12:57:30.663Z,51.51
2023-04-02T12:58:58.273Z,52.66
2023-04-02T13:00:06.711Z,53.59
2023-04-02T13:01:14.788Z,52.68
2023-04-02T13:02:21.453Z,52.64
2023-04-02T13:03:25.547Z,54.26
2023-04-02T13:04:29.671Z,53.08
2023-04-02T13:05:41.786Z,51.95
2023-04-02T13:06:57.717Z,53.11
2023-04-02T13:08:01.120Z,53.89
2023-04-02T13:09:07.666Z,51.59
2023-04-02T13:10:27.863Z,54.06
2023-04-02T13:11:39.661Z,51.48
2023-04-02T13:12:42.673Z,50.89
2023-04-02T13:13:47.384Z,51.73
2023-04-02T13:14:58.088Z,52.20
2023-04-02T13:16:08.576Z,51.38
2023-04-02T13:17:41.090Z,51.33
2023-04-02T13:18:47.712Z,51.39
2023-04-02T13:19:51.348Z,51.04
2023-04-02T13:21:01.377Z,51.88
2023-04-02T13:22:32.202Z,52.20
2023-04-02T13:23:38.182Z,51.43
2023-04-02T13:24:41.654Z,51.54
2023-04-02T13:25:44.988Z,52.05
2023-04-02T13:26:49.938Z,51.93
2023-04-02T13:27:54.148Z,52.32
2023-04-02T13:28:58.539Z,51.76
2023-04-02T13:30:09.173Z,51.27
2023-04-02T13:31:17.206Z,51.44
2023-04-02T13:32:20.209Z,51.19
2023-04-02T13:33:23.354Z,51.87
2023-04-02T13:34:26.787Z,50.64
2023-04-02T13:35:29.968Z,51.44
2023-04-02T13:36:33.062Z,50.80
2023-04-02T13:37:36.318Z,51.65
2023-04-02T13:38:39.479Z,52.46
2023-04-02T13:39:43.024Z,52.32
2023-04-02T13:40:47.073Z,53.07
2023-04-02T13:42:03.294Z,53.73
2023-04-02T13:43:07.659Z,53.86
2023-04-02T13:44:32.410Z,53.73
2023-04-02T13:45:38.375Z,54.38
2023-04-02T13:46:41.549Z,54.75
2023-04-02T13:47:45.274Z,54.98
2023-04-02T13:48:51.079Z,55.16
2023-04-02T13:49:55.772Z,55.22
2023-04-02T13:50:59.035Z,53.72
2023-04-02T13:52:05.279Z,52.55
2023-04-02T13:53:14.019Z,53.40
2023-04-02T13:54:24.265Z,52.69
2023-04-02T13:55:33.766Z,53.15
2023-04-02T13:56:37.835Z,52.78
2023-04-02T13:57:41.013Z,52.20
2023-04-02T13:58:44.443Z,51.84
2023-04-02T13:59:47.958Z,51.82
2023-04-02T14:00:51.996Z,53.42
2023-04-02T14:02:03.325Z,54.12
2023-04-02T14:03:11.430Z,54.54
2023-04-02T14:04:23.336Z,55.05
2023-04-02T14:05:51.402Z,56.38
2023-04-02T14:07:15.400Z,57.23
2023-04-02T14:08:41.608Z,57.94
2023-04-02T14:09:48.197Z,58.49
2023-04-02T14:11:00.315Z,59.17
2023-04-02T14:12:35.572Z,59.03
2023-04-02T14:13:44.688Z,59.95
2023-04-02T14:15:13.284Z,61.33
2023-04-02T14:16:34.674Z,61.37
2023-04-02T14:17:58.664Z,60.52
2023-04-02T14:19:26.921Z,59.70
2023-04-02T14:20:49.776Z,59.17
2023-04-02T14:22:17.415Z,59.69
2023-04-02T14:23:27.501Z,59.40
2023-04-02T14:24:44.675Z,57.53
2023-04-02T14:26:32.740Z,56.33
2023-04-02T14:27:47.343Z,56.93
2023-04-02T14:29:00.397Z,57.54
2023-04-02T14:30:08.976Z,58.41
2023-04-02T14:31:38.721Z,58.84
2023-04-02T14:32:55.822Z,58.31
2023-04-02T14:34:14.350Z,58.65
2023-04-02T14:35:29.676Z,59.50
2023-04-02T14:36:48.183Z,59.06
2023-04-02T14:38:17.984Z,59.18
2023-04-02T14:39:58.996Z,59.91
2023-04-02T14:41:38.124Z,60.10
2023-04-02T14:43:02.240Z,59.94
2023-04-02T14:44:08.020Z,60.98
2023-04-02T14:45:45.115Z,60.97
2023-04-02T14:46:48.632Z,60.09
2023-04-02T14:48:03.443Z,61.10
2023-04-02T14:49:09.418Z,61.08
2023-04-02T14:50:42.267Z,60.45
2023-04-02T14:51:55.490Z,60.91
2023-04-02T14:53:04.681Z,61.23
2023-04-02T14:54:12.815Z,61.46
2023-04-02T14:55:24.298Z,62.01
2023-04-02T14:56:29.778Z,62.56
2023-04-02T14:57:49.228Z,62.74
2023-04-02T14:59:06.851Z,62.82
2023-04-02T15:00:33.283Z,62.95
2023-04-02T15:01:42.122Z,63.14
2023-04-02T15:03:25.848Z,64.70
2023-04-02T15:04:37.865Z,66.36
2023-04-02T15:05:48.263Z,67.65
2023-04-02T15:06:56.271Z,68.55
2023-04-02T15:08:08.497Z,69.86
2023-04-02T15:09:20.612Z,71.31
2023-04-02T15:10:37.346Z,73.69
2023-04-02T15:12:04.198Z,74.11
2023-04-02T15:13:20.554Z,76.03
2023-04-02T15:14:34.355Z,78.87
2023-04-02T15:16:11.351Z,79.62
2023-04-02T15:17:15.076Z,80.37
2023-04-02T15:18:18.971Z,81.32
2023-04-02T15:19:22.224Z,82.16
2023-04-02T15:20:26.889Z,82.27
2023-04-02T15:21:57.186Z,82.00
2023-04-02T15:23:31.699Z,83.53
2023-04-02T15:24:56.954Z,82.05
2023-04-02T15:26:29.157Z,82.33
2023-04-02T15:27:33.208Z,81.88
2023-04-02T15:28:48.165Z,82.05
2023-04-02T15:30:15.665Z,82.92